sensor_id;sensor_type;location;lat;lon;timestamp;P1;durP1;ratioP1;P2;durP2;ratioP2
17259;SDS011;8746;49.230;9.220;2023-02-28T00:00:06;5.23;;;2.80;;
17259;SDS011;8746;49.230;9.220;2023-02-28T00:02:35;2.97;;;2.77;;
17259;SDS011;8746;49.230;9.220;2023-02-28T00:05:04;3.70;;;3.10;;
17259;SDS011;8746;49.230;9.220;2023-02-28T00:07:30;3.00;;;2.70;;
17259;SDS011;8746;49.230;9.220;2023-02-28T00:09:56;3.40;;;3.10;;
17259;SDS011;8746;49.230;9.220;2023-02-28T00:12:21;4.10;;;2.90;;
17259;SDS011;8746;49.230;9.220;2023-02-28T00:14:47;4.40;;;3.00;;
17259;SDS011;8746;49.230;9.220;2023-02-28T00:17:12;3.27;;;2.80;;
17259;SDS011;8746;49.230;9.220;2023-02-28T00:19:37;2.77;;;2.57;;
17259;SDS011;8746;49.230;9.220;2023-02-28T00:22:03;3.57;;;2.80;;
17259;SDS011;8746;49.230;9.220;2023-02-28T00:24:28;3.20;;;2.70;;
17259;SDS011;8746;49.230;9.220;2023-02-28T00:26:53;3.33;;;2.97;;
17259;SDS011;8746;49.230;9.220;2023-02-28T00:29:19;3.50;;;3.10;;
17259;SDS011;8746;49.230;9.220;2023-02-28T00:31:44;4.33;;;3.13;;
17259;SDS011;8746;49.230;9.220;2023-02-28T00:34:09;3.50;;;3.13;;
17259;SDS011;8746;49.230;9.220;2023-02-28T00:36:35;3.30;;;3.00;;
17259;SDS011;8746;49.230;9.220;2023-02-28T00:39:00;3.03;;;2.73;;
17259;SDS011;8746;49.230;9.220;2023-02-28T00:41:25;3.17;;;2.87;;
17259;SDS011;8746;49.230;9.220;2023-02-28T00:43:51;4.43;;;3.33;;
17259;SDS011;8746;49.230;9.220;2023-02-28T00:46:16;3.67;;;3.27;;
17259;SDS011;8746;49.230;9.220;2023-02-28T00:48:41;4.53;;;3.60;;
17259;SDS011;8746;49.230;9.220;2023-02-28T00:51:07;4.00;;;3.27;;
17259;SDS011;8746;49.230;9.220;2023-02-28T00:53:32;4.77;;;3.07;;
17259;SDS011;8746;49.230;9.220;2023-02-28T00:55:58;3.27;;;2.97;;
17259;SDS011;8746;49.230;9.220;2023-02-28T00:58:23;4.60;;;3.23;;
17259;SDS011;8746;49.230;9.220;2023-02-28T01:00:49;3.97;;;3.20;;
17259;SDS011;8746;49.230;9.220;2023-02-28T01:03:17;3.60;;;3.27;;
17259;SDS011;8746;49.230;9.220;2023-02-28T01:05:44;3.47;;;2.80;;
17259;SDS011;8746;49.230;9.220;2023-02-28T01:08:11;3.50;;;3.20;;
17259;SDS011;8746;49.230;9.220;2023-02-28T01:10:36;3.37;;;3.03;;
17259;SDS011;8746;49.230;9.220;2023-02-28T01:13:03;3.00;;;2.70;;
17259;SDS011;8746;49.230;9.220;2023-02-28T01:15:29;4.80;;;3.30;;
17259;SDS011;8746;49.230;9.220;2023-02-28T01:17:54;3.30;;;2.90;;
17259;SDS011;8746;49.230;9.220;2023-02-28T01:20:19;5.90;;;3.60;;
17259;SDS011;8746;49.230;9.220;2023-02-28T01:22:45;4.03;;;3.07;;
17259;SDS011;8746;49.230;9.220;2023-02-28T01:25:11;4.33;;;3.07;;
17259;SDS011;8746;49.230;9.220;2023-02-28T01:27:37;3.30;;;3.00;;
17259;SDS011;8746;49.230;9.220;2023-02-28T01:30:04;3.47;;;3.03;;
17259;SDS011;8746;49.230;9.220;2023-02-28T01:32:30;3.90;;;3.50;;
17259;SDS011;8746;49.230;9.220;2023-02-28T01:34:56;4.37;;;3.23;;
17259;SDS011;8746;49.230;9.220;2023-02-28T01:37:21;3.77;;;3.17;;
17259;SDS011;8746;49.230;9.220;2023-02-28T01:39:46;3.77;;;3.47;;
17259;SDS011;8746;49.230;9.220;2023-02-28T01:42:12;4.30;;;3.30;;
17259;SDS011;8746;49.230;9.220;2023-02-28T01:47:24;4.00;;;3.23;;
17259;SDS011;8746;49.230;9.220;2023-02-28T01:49:54;5.63;;;3.60;;
17259;SDS011;8746;49.230;9.220;2023-02-28T01:52:19;3.33;;;3.03;;
17259;SDS011;8746;49.230;9.220;2023-02-28T01:54:47;4.23;;;3.13;;
17259;SDS011;8746;49.230;9.220;2023-02-28T01:57:19;5.60;;;3.67;;
17259;SDS011;8746;49.230;9.220;2023-02-28T02:00:08;4.07;;;3.50;;
17259;SDS011;8746;49.230;9.220;2023-02-28T02:02:40;5.47;;;3.73;;
17259;SDS011;8746;49.230;9.220;2023-02-28T02:05:09;3.93;;;3.13;;
17259;SDS011;8746;49.230;9.220;2023-02-28T02:07:39;3.70;;;3.33;;
17259;SDS011;8746;49.230;9.220;2023-02-28T02:10:18;4.90;;;3.83;;
17259;SDS011;8746;49.230;9.220;2023-02-28T02:18:22;5.00;;;3.47;;
17259;SDS011;8746;49.230;9.220;2023-02-28T02:40:43;5.83;;;3.40;;
17259;SDS011;8746;49.230;9.220;2023-02-28T02:43:00;4.20;;;3.33;;
17259;SDS011;8746;49.230;9.220;2023-02-28T02:45:49;4.53;;;3.70;;
17259;SDS011;8746;49.230;9.220;2023-02-28T02:48:20;3.80;;;3.50;;
17259;SDS011;8746;49.230;9.220;2023-02-28T02:50:53;4.10;;;3.70;;
17259;SDS011;8746;49.230;9.220;2023-02-28T02:53:22;4.23;;;3.80;;
17259;SDS011;8746;49.230;9.220;2023-02-28T02:55:55;3.77;;;3.13;;
17259;SDS011;8746;49.230;9.220;2023-02-28T02:58:24;4.90;;;3.97;;
17259;SDS011;8746;49.230;9.220;2023-02-28T03:00:54;4.43;;;3.60;;
17259;SDS011;8746;49.230;9.220;2023-02-28T03:03:24;4.20;;;3.43;;
17259;SDS011;8746;49.230;9.220;2023-02-28T03:05:57;5.10;;;3.93;;
17259;SDS011;8746;49.230;9.220;2023-02-28T03:08:24;3.67;;;3.20;;
17259;SDS011;8746;49.230;9.220;2023-02-28T03:10:59;4.03;;;3.60;;
17259;SDS011;8746;49.230;9.220;2023-02-28T03:24:54;4.73;;;3.73;;
17259;SDS011;8746;49.230;9.220;2023-02-28T03:27:33;4.00;;;3.60;;
17259;SDS011;8746;49.230;9.220;2023-02-28T03:30:00;4.07;;;3.63;;
17259;SDS011;8746;49.230;9.220;2023-02-28T03:35:58;6.10;;;3.87;;
17259;SDS011;8746;49.230;9.220;2023-02-28T03:43:45;5.83;;;4.20;;
17259;SDS011;8746;49.230;9.220;2023-02-28T03:46:17;4.30;;;3.53;;
17259;SDS011;8746;49.230;9.220;2023-02-28T03:48:57;5.77;;;4.23;;
17259;SDS011;8746;49.230;9.220;2023-02-28T03:51:31;5.57;;;3.93;;
17259;SDS011;8746;49.230;9.220;2023-02-28T03:53:58;3.73;;;3.37;;
17259;SDS011;8746;49.230;9.220;2023-02-28T03:56:30;4.20;;;3.73;;
17259;SDS011;8746;49.230;9.220;2023-02-28T04:01:47;5.50;;;4.27;;
17259;SDS011;8746;49.230;9.220;2023-02-28T04:04:14;4.97;;;4.17;;
17259;SDS011;8746;49.230;9.220;2023-02-28T04:06:41;5.43;;;3.93;;
17259;SDS011;8746;49.230;9.220;2023-02-28T04:09:10;5.17;;;3.70;;
17259;SDS011;8746;49.230;9.220;2023-02-28T04:11:38;4.87;;;4.07;;
17259;SDS011;8746;49.230;9.220;2023-02-28T04:14:07;4.83;;;4.00;;
17259;SDS011;8746;49.230;9.220;2023-02-28T04:16:34;4.90;;;4.00;;
17259;SDS011;8746;49.230;9.220;2023-02-28T04:19:02;4.83;;;3.90;;
17259;SDS011;8746;49.230;9.220;2023-02-28T04:21:30;4.80;;;4.03;;
17259;SDS011;8746;49.230;9.220;2023-02-28T04:23:56;6.23;;;4.17;;
17259;SDS011;8746;49.230;9.220;2023-02-28T04:26:25;5.40;;;4.30;;
17259;SDS011;8746;49.230;9.220;2023-02-28T04:28:53;6.37;;;4.30;;
17259;SDS011;8746;49.230;9.220;2023-02-28T04:31:18;4.40;;;4.00;;
17259;SDS011;8746;49.230;9.220;2023-02-28T04:33:44;3.90;;;3.50;;
17259;SDS011;8746;49.230;9.220;2023-02-28T04:36:09;5.43;;;4.30;;
17259;SDS011;8746;49.230;9.220;2023-02-28T04:38:35;5.20;;;4.20;;
17259;SDS011;8746;49.230;9.220;2023-02-28T04:41:02;5.57;;;4.80;;
17259;SDS011;8746;49.230;9.220;2023-02-28T04:43:28;5.20;;;4.30;;
17259;SDS011;8746;49.230;9.220;2023-02-28T04:45:54;6.33;;;4.40;;
17259;SDS011;8746;49.230;9.220;2023-02-28T04:48:24;4.87;;;4.07;;
17259;SDS011;8746;49.230;9.220;2023-02-28T04:50:50;4.80;;;3.80;;
17259;SDS011;8746;49.230;9.220;2023-02-28T04:53:16;5.40;;;4.33;;
17259;SDS011;8746;49.230;9.220;2023-02-28T04:55:43;6.00;;;4.27;;
17259;SDS011;8746;49.230;9.220;2023-02-28T04:58:09;6.23;;;4.17;;
17259;SDS011;8746;49.230;9.220;2023-02-28T05:00:34;6.10;;;4.17;;
17259;SDS011;8746;49.230;9.220;2023-02-28T05:02:59;5.63;;;4.17;;
17259;SDS011;8746;49.230;9.220;2023-02-28T05:05:24;7.07;;;4.77;;
17259;SDS011;8746;49.230;9.220;2023-02-28T05:07:50;4.97;;;4.00;;
17259;SDS011;8746;49.230;9.220;2023-02-28T05:10:15;4.87;;;4.37;;
17259;SDS011;8746;49.230;9.220;2023-02-28T05:12:42;5.00;;;4.30;;
17259;SDS011;8746;49.230;9.220;2023-02-28T05:15:09;5.07;;;4.00;;
17259;SDS011;8746;49.230;9.220;2023-02-28T05:17:38;4.90;;;4.07;;
17259;SDS011;8746;49.230;9.220;2023-02-28T05:20:04;6.23;;;4.23;;
17259;SDS011;8746;49.230;9.220;2023-02-28T05:22:30;5.43;;;4.23;;
17259;SDS011;8746;49.230;9.220;2023-02-28T05:24:56;5.20;;;4.70;;
17259;SDS011;8746;49.230;9.220;2023-02-28T05:27:22;4.23;;;3.73;;
17259;SDS011;8746;49.230;9.220;2023-02-28T05:29:48;3.73;;;3.03;;
17259;SDS011;8746;49.230;9.220;2023-02-28T05:32:14;5.77;;;4.40;;
17259;SDS011;8746;49.230;9.220;2023-02-28T05:34:40;6.00;;;4.17;;
17259;SDS011;8746;49.230;9.220;2023-02-28T05:37:05;5.53;;;4.37;;
17259;SDS011;8746;49.230;9.220;2023-02-28T05:39:35;5.07;;;4.43;;
17259;SDS011;8746;49.230;9.220;2023-02-28T05:42:01;4.93;;;4.43;;
17259;SDS011;8746;49.230;9.220;2023-02-28T05:44:26;5.97;;;3.97;;
17259;SDS011;8746;49.230;9.220;2023-02-28T05:46:51;7.23;;;4.40;;
17259;SDS011;8746;49.230;9.220;2023-02-28T05:49:17;4.70;;;3.70;;
17259;SDS011;8746;49.230;9.220;2023-02-28T05:51:42;5.23;;;4.30;;
17259;SDS011;8746;49.230;9.220;2023-02-28T05:54:07;6.70;;;5.03;;
17259;SDS011;8746;49.230;9.220;2023-02-28T05:56:33;6.10;;;4.53;;
17259;SDS011;8746;49.230;9.220;2023-02-28T05:59:03;7.43;;;4.63;;
17259;SDS011;8746;49.230;9.220;2023-02-28T06:04:01;6.33;;;4.53;;
17259;SDS011;8746;49.230;9.220;2023-02-28T06:06:28;5.90;;;4.70;;
17259;SDS011;8746;49.230;9.220;2023-02-28T06:08:54;8.03;;;5.20;;
17259;SDS011;8746;49.230;9.220;2023-02-28T06:11:20;6.13;;;4.63;;
17259;SDS011;8746;49.230;9.220;2023-02-28T06:13:45;7.53;;;5.10;;
17259;SDS011;8746;49.230;9.220;2023-02-28T06:16:11;6.47;;;5.33;;
17259;SDS011;8746;49.230;9.220;2023-02-28T06:18:36;6.30;;;5.10;;
17259;SDS011;8746;49.230;9.220;2023-02-28T06:21:02;6.57;;;4.53;;
17259;SDS011;8746;49.230;9.220;2023-02-28T06:23:27;6.73;;;5.43;;
17259;SDS011;8746;49.230;9.220;2023-02-28T06:25:53;6.47;;;4.83;;
17259;SDS011;8746;49.230;9.220;2023-02-28T06:28:18;6.40;;;4.70;;
17259;SDS011;8746;49.230;9.220;2023-02-28T06:30:44;6.17;;;5.20;;
17259;SDS011;8746;49.230;9.220;2023-02-28T06:33:09;5.67;;;4.60;;
17259;SDS011;8746;49.230;9.220;2023-02-28T06:35:35;7.43;;;5.17;;
17259;SDS011;8746;49.230;9.220;2023-02-28T06:38:00;6.63;;;5.30;;
17259;SDS011;8746;49.230;9.220;2023-02-28T06:40:25;6.67;;;5.20;;
17259;SDS011;8746;49.230;9.220;2023-02-28T06:42:51;6.40;;;5.03;;
17259;SDS011;8746;49.230;9.220;2023-02-28T06:45:16;6.03;;;5.17;;
17259;SDS011;8746;49.230;9.220;2023-02-28T06:47:42;6.03;;;4.53;;
17259;SDS011;8746;49.230;9.220;2023-02-28T06:50:10;6.43;;;5.00;;
17259;SDS011;8746;49.230;9.220;2023-02-28T06:52:37;5.70;;;4.60;;
17259;SDS011;8746;49.230;9.220;2023-02-28T06:55:05;8.90;;;4.60;;
17259;SDS011;8746;49.230;9.220;2023-02-28T06:57:32;6.27;;;5.17;;
17259;SDS011;8746;49.230;9.220;2023-02-28T06:59:59;5.40;;;4.43;;
17259;SDS011;8746;49.230;9.220;2023-02-28T07:02:26;6.63;;;5.17;;
17259;SDS011;8746;49.230;9.220;2023-02-28T07:04:52;6.23;;;4.47;;
17259;SDS011;8746;49.230;9.220;2023-02-28T07:07:17;6.13;;;5.20;;
17259;SDS011;8746;49.230;9.220;2023-02-28T07:09:43;9.53;;;5.43;;
17259;SDS011;8746;49.230;9.220;2023-02-28T07:12:08;6.73;;;4.73;;
17259;SDS011;8746;49.230;9.220;2023-02-28T07:14:33;5.20;;;4.43;;
17259;SDS011;8746;49.230;9.220;2023-02-28T07:17:01;6.03;;;4.63;;
17259;SDS011;8746;49.230;9.220;2023-02-28T07:19:27;5.90;;;4.53;;
17259;SDS011;8746;49.230;9.220;2023-02-28T07:21:53;6.77;;;5.27;;
17259;SDS011;8746;49.230;9.220;2023-02-28T07:24:18;6.07;;;4.80;;
17259;SDS011;8746;49.230;9.220;2023-02-28T07:26:43;6.27;;;5.00;;
17259;SDS011;8746;49.230;9.220;2023-02-28T07:29:08;6.40;;;5.27;;
17259;SDS011;8746;49.230;9.220;2023-02-28T07:31:34;7.03;;;4.70;;
17259;SDS011;8746;49.230;9.220;2023-02-28T07:33:59;8.03;;;5.60;;
17259;SDS011;8746;49.230;9.220;2023-02-28T07:36:25;5.43;;;4.93;;
17259;SDS011;8746;49.230;9.220;2023-02-28T07:38:50;7.57;;;4.73;;
17259;SDS011;8746;49.230;9.220;2023-02-28T07:41:16;5.80;;;4.50;;
17259;SDS011;8746;49.230;9.220;2023-02-28T07:43:46;6.27;;;4.67;;
17259;SDS011;8746;49.230;9.220;2023-02-28T07:46:12;5.83;;;5.00;;
17259;SDS011;8746;49.230;9.220;2023-02-28T07:48:42;6.93;;;5.17;;
17259;SDS011;8746;49.230;9.220;2023-02-28T07:51:08;5.57;;;4.97;;
17259;SDS011;8746;49.230;9.220;2023-02-28T07:53:33;6.03;;;4.90;;
17259;SDS011;8746;49.230;9.220;2023-02-28T07:56:00;6.30;;;4.67;;
17259;SDS011;8746;49.230;9.220;2023-02-28T07:58:26;5.23;;;3.73;;
17259;SDS011;8746;49.230;9.220;2023-02-28T08:00:53;5.43;;;4.47;;
17259;SDS011;8746;49.230;9.220;2023-02-28T08:03:19;4.87;;;3.73;;
17259;SDS011;8746;49.230;9.220;2023-02-28T08:05:46;4.80;;;3.73;;
17259;SDS011;8746;49.230;9.220;2023-02-28T08:08:11;5.93;;;4.00;;
17259;SDS011;8746;49.230;9.220;2023-02-28T08:10:37;6.50;;;4.23;;
17259;SDS011;8746;49.230;9.220;2023-02-28T08:13:02;3.60;;;3.07;;
17259;SDS011;8746;49.230;9.220;2023-02-28T08:15:28;6.33;;;5.00;;
17259;SDS011;8746;49.230;9.220;2023-02-28T08:17:53;7.10;;;5.20;;
17259;SDS011;8746;49.230;9.220;2023-02-28T08:20:21;4.53;;;4.03;;
17259;SDS011;8746;49.230;9.220;2023-02-28T08:22:47;6.57;;;5.40;;
17259;SDS011;8746;49.230;9.220;2023-02-28T08:25:12;5.47;;;4.27;;
17259;SDS011;8746;49.230;9.220;2023-02-28T08:27:37;6.23;;;5.30;;
17259;SDS011;8746;49.230;9.220;2023-02-28T08:30:03;7.83;;;5.67;;
17259;SDS011;8746;49.230;9.220;2023-02-28T08:32:28;5.70;;;4.70;;
17259;SDS011;8746;49.230;9.220;2023-02-28T08:34:54;5.23;;;4.40;;
17259;SDS011;8746;49.230;9.220;2023-02-28T08:37:19;6.63;;;5.37;;
17259;SDS011;8746;49.230;9.220;2023-02-28T08:39:45;5.93;;;4.70;;
17259;SDS011;8746;49.230;9.220;2023-02-28T08:42:10;7.40;;;5.43;;
17259;SDS011;8746;49.230;9.220;2023-02-28T08:44:35;9.07;;;5.60;;
17259;SDS011;8746;49.230;9.220;2023-02-28T08:47:01;3.13;;;2.27;;
17259;SDS011;8746;49.230;9.220;2023-02-28T08:49:26;7.87;;;5.80;;
17259;SDS011;8746;49.230;9.220;2023-02-28T08:51:51;5.97;;;4.13;;
17259;SDS011;8746;49.230;9.220;2023-02-28T08:54:17;6.60;;;5.53;;
17259;SDS011;8746;49.230;9.220;2023-02-28T08:56:44;5.93;;;4.90;;
17259;SDS011;8746;49.230;9.220;2023-02-28T08:59:11;4.03;;;3.10;;
17259;SDS011;8746;49.230;9.220;2023-02-28T09:01:37;6.87;;;5.60;;
17259;SDS011;8746;49.230;9.220;2023-02-28T09:04:02;7.70;;;5.20;;
17259;SDS011;8746;49.230;9.220;2023-02-28T09:06:28;6.07;;;5.03;;
17259;SDS011;8746;49.230;9.220;2023-02-28T09:08:57;7.93;;;5.03;;
17259;SDS011;8746;49.230;9.220;2023-02-28T09:11:26;5.90;;;5.00;;
17259;SDS011;8746;49.230;9.220;2023-02-28T09:13:52;10.60;;;5.37;;
17259;SDS011;8746;49.230;9.220;2023-02-28T09:16:17;7.20;;;5.97;;
17259;SDS011;8746;49.230;9.220;2023-02-28T09:18:43;4.80;;;3.90;;
17259;SDS011;8746;49.230;9.220;2023-02-28T09:21:10;6.00;;;4.77;;
17259;SDS011;8746;49.230;9.220;2023-02-28T09:23:39;6.80;;;5.80;;
17259;SDS011;8746;49.230;9.220;2023-02-28T09:26:11;6.77;;;5.93;;
17259;SDS011;8746;49.230;9.220;2023-02-28T09:28:39;8.10;;;5.53;;
17259;SDS011;8746;49.230;9.220;2023-02-28T09:31:04;4.27;;;3.57;;
17259;SDS011;8746;49.230;9.220;2023-02-28T09:33:29;7.23;;;5.40;;
17259;SDS011;8746;49.230;9.220;2023-02-28T09:35:59;4.87;;;3.57;;
17259;SDS011;8746;49.230;9.220;2023-02-28T09:38:25;7.03;;;5.07;;
17259;SDS011;8746;49.230;9.220;2023-02-28T09:40:53;5.33;;;4.30;;
17259;SDS011;8746;49.230;9.220;2023-02-28T09:43:22;7.77;;;5.70;;
17259;SDS011;8746;49.230;9.220;2023-02-28T09:45:59;7.60;;;5.87;;
17259;SDS011;8746;49.230;9.220;2023-02-28T09:48:37;5.47;;;4.37;;
17259;SDS011;8746;49.230;9.220;2023-02-28T09:51:14;4.83;;;3.97;;
17259;SDS011;8746;49.230;9.220;2023-02-28T09:53:52;5.57;;;4.60;;
17259;SDS011;8746;49.230;9.220;2023-02-28T09:56:25;5.43;;;4.93;;
17259;SDS011;8746;49.230;9.220;2023-02-28T09:58:59;8.07;;;6.07;;
17259;SDS011;8746;49.230;9.220;2023-02-28T10:01:34;6.93;;;5.67;;
17259;SDS011;8746;49.230;9.220;2023-02-28T10:04:49;7.03;;;5.77;;
17259;SDS011;8746;49.230;9.220;2023-02-28T10:10:04;8.73;;;6.60;;
17259;SDS011;8746;49.230;9.220;2023-02-28T10:12:41;7.00;;;4.60;;
17259;SDS011;8746;49.230;9.220;2023-02-28T10:15:13;7.07;;;5.40;;
17259;SDS011;8746;49.230;9.220;2023-02-28T10:17:41;8.80;;;5.47;;
17259;SDS011;8746;49.230;9.220;2023-02-28T10:20:11;9.23;;;6.57;;
17259;SDS011;8746;49.230;9.220;2023-02-28T10:22:57;7.03;;;5.43;;
17259;SDS011;8746;49.230;9.220;2023-02-28T10:25:25;8.47;;;6.07;;
17259;SDS011;8746;49.230;9.220;2023-02-28T10:27:53;7.90;;;5.70;;
17259;SDS011;8746;49.230;9.220;2023-02-28T10:30:22;7.10;;;6.20;;
17259;SDS011;8746;49.230;9.220;2023-02-28T10:32:51;6.97;;;5.93;;
17259;SDS011;8746;49.230;9.220;2023-02-28T10:35:22;8.20;;;6.80;;
17259;SDS011;8746;49.230;9.220;2023-02-28T10:37:50;5.33;;;4.53;;
17259;SDS011;8746;49.230;9.220;2023-02-28T10:45:21;6.03;;;5.30;;
17259;SDS011;8746;49.230;9.220;2023-02-28T10:47:53;6.90;;;6.20;;
17259;SDS011;8746;49.230;9.220;2023-02-28T10:53:17;8.00;;;5.43;;
17259;SDS011;8746;49.230;9.220;2023-02-28T10:58:40;7.37;;;5.47;;
17259;SDS011;8746;49.230;9.220;2023-02-28T11:01:17;4.30;;;3.90;;
17259;SDS011;8746;49.230;9.220;2023-02-28T11:03:43;6.53;;;5.20;;
17259;SDS011;8746;49.230;9.220;2023-02-28T11:06:13;7.87;;;6.13;;
17259;SDS011;8746;49.230;9.220;2023-02-28T11:08:55;8.53;;;5.80;;
17259;SDS011;8746;49.230;9.220;2023-02-28T11:11:24;8.23;;;6.87;;
17259;SDS011;8746;49.230;9.220;2023-02-28T11:13:52;7.83;;;6.30;;
17259;SDS011;8746;49.230;9.220;2023-02-28T11:16:19;7.87;;;6.10;;
17259;SDS011;8746;49.230;9.220;2023-02-28T11:18:52;7.13;;;6.43;;
17259;SDS011;8746;49.230;9.220;2023-02-28T11:24:01;6.47;;;5.87;;
17259;SDS011;8746;49.230;9.220;2023-02-28T11:26:38;8.07;;;6.80;;
17259;SDS011;8746;49.230;9.220;2023-02-28T11:29:18;6.60;;;4.77;;
17259;SDS011;8746;49.230;9.220;2023-02-28T11:34:38;8.17;;;7.00;;
17259;SDS011;8746;49.230;9.220;2023-02-28T11:37:05;8.50;;;6.00;;
17259;SDS011;8746;49.230;9.220;2023-02-28T11:39:36;8.47;;;7.20;;
17259;SDS011;8746;49.230;9.220;2023-02-28T11:47:35;7.57;;;6.77;;
17259;SDS011;8746;49.230;9.220;2023-02-28T11:50:26;7.17;;;6.47;;
17259;SDS011;8746;49.230;9.220;2023-02-28T11:53:19;8.33;;;6.67;;
17259;SDS011;8746;49.230;9.220;2023-02-28T11:56:03;6.60;;;5.90;;
17259;SDS011;8746;49.230;9.220;2023-02-28T11:58:51;6.40;;;4.63;;
17259;SDS011;8746;49.230;9.220;2023-02-28T12:04:17;9.80;;;7.20;;
17259;SDS011;8746;49.230;9.220;2023-02-28T12:09:40;8.60;;;6.97;;
17259;SDS011;8746;49.230;9.220;2023-02-28T12:21:01;9.40;;;7.70;;
17259;SDS011;8746;49.230;9.220;2023-02-28T12:26:34;10.00;;;7.33;;
17259;SDS011;8746;49.230;9.220;2023-02-28T12:35:23;9.93;;;8.07;;
17259;SDS011;8746;49.230;9.220;2023-02-28T12:37:51;8.43;;;7.53;;
17259;SDS011;8746;49.230;9.220;2023-02-28T12:40:25;8.93;;;7.20;;
17259;SDS011;8746;49.230;9.220;2023-02-28T12:43:00;9.43;;;7.37;;
17259;SDS011;8746;49.230;9.220;2023-02-28T12:48:22;10.07;;;7.30;;
17259;SDS011;8746;49.230;9.220;2023-02-28T12:50:52;9.10;;;7.40;;
17259;SDS011;8746;49.230;9.220;2023-02-28T12:53:26;9.33;;;7.43;;
17259;SDS011;8746;49.230;9.220;2023-02-28T13:09:41;7.77;;;6.23;;
17259;SDS011;8746;49.230;9.220;2023-02-28T13:12:17;8.77;;;7.60;;
17259;SDS011;8746;49.230;9.220;2023-02-28T13:14:43;9.07;;;8.10;;
17259;SDS011;8746;49.230;9.220;2023-02-28T13:19:38;8.60;;;7.70;;
17259;SDS011;8746;49.230;9.220;2023-02-28T13:27:48;8.77;;;7.87;;
17259;SDS011;8746;49.230;9.220;2023-02-28T13:41:50;9.23;;;7.03;;
17259;SDS011;8746;49.230;9.220;2023-02-28T13:44:22;8.77;;;6.97;;
17259;SDS011;8746;49.230;9.220;2023-02-28T13:51:48;8.83;;;7.90;;
17259;SDS011;8746;49.230;9.220;2023-02-28T14:06:08;7.50;;;6.63;;
17259;SDS011;8746;49.230;9.220;2023-02-28T14:08:35;9.40;;;7.97;;
17259;SDS011;8746;49.230;9.220;2023-02-28T14:11:08;9.70;;;6.10;;
17259;SDS011;8746;49.230;9.220;2023-02-28T14:13:48;10.03;;;8.03;;
17259;SDS011;8746;49.230;9.220;2023-02-28T14:16:14;8.57;;;6.97;;
17259;SDS011;8746;49.230;9.220;2023-02-28T14:18:55;8.93;;;7.60;;
17259;SDS011;8746;49.230;9.220;2023-02-28T14:21:27;10.13;;;7.33;;
17259;SDS011;8746;49.230;9.220;2023-02-28T14:24:16;8.93;;;7.47;;
17259;SDS011;8746;49.230;9.220;2023-02-28T14:37:46;12.03;;;7.43;;
17259;SDS011;8746;49.230;9.220;2023-02-28T14:40:17;8.80;;;7.37;;
17259;SDS011;8746;49.230;9.220;2023-02-28T14:42:54;9.17;;;6.93;;
17259;SDS011;8746;49.230;9.220;2023-02-28T14:45:24;10.03;;;7.77;;
17259;SDS011;8746;49.230;9.220;2023-02-28T14:47:54;10.70;;;7.63;;
17259;SDS011;8746;49.230;9.220;2023-02-28T14:50:20;9.90;;;7.37;;
17259;SDS011;8746;49.230;9.220;2023-02-28T14:52:54;6.10;;;5.50;;
17259;SDS011;8746;49.230;9.220;2023-02-28T14:55:23;11.33;;;6.70;;
17259;SDS011;8746;49.230;9.220;2023-02-28T14:57:55;9.43;;;7.23;;
17259;SDS011;8746;49.230;9.220;2023-02-28T15:02:56;8.80;;;7.20;;
17259;SDS011;8746;49.230;9.220;2023-02-28T15:08:27;7.93;;;7.13;;
17259;SDS011;8746;49.230;9.220;2023-02-28T15:10:57;10.27;;;7.33;;
17259;SDS011;8746;49.230;9.220;2023-02-28T15:16:17;8.57;;;7.43;;
17259;SDS011;8746;49.230;9.220;2023-02-28T15:21:28;8.90;;;6.90;;
17259;SDS011;8746;49.230;9.220;2023-02-28T15:23:59;8.77;;;7.27;;
17259;SDS011;8746;49.230;9.220;2023-02-28T15:26:32;9.07;;;7.30;;
17259;SDS011;8746;49.230;9.220;2023-02-28T15:29:01;8.27;;;7.17;;
17259;SDS011;8746;49.230;9.220;2023-02-28T15:31:34;8.53;;;7.27;;
17259;SDS011;8746;49.230;9.220;2023-02-28T15:34:06;8.93;;;7.03;;
17259;SDS011;8746;49.230;9.220;2023-02-28T15:36:41;11.10;;;7.97;;
17259;SDS011;8746;49.230;9.220;2023-02-28T15:39:18;8.97;;;7.13;;
17259;SDS011;8746;49.230;9.220;2023-02-28T15:41:49;8.73;;;7.73;;
17259;SDS011;8746;49.230;9.220;2023-02-28T15:44:28;8.93;;;7.20;;
17259;SDS011;8746;49.230;9.220;2023-02-28T15:46:59;10.23;;;7.50;;
17259;SDS011;8746;49.230;9.220;2023-02-28T15:49:27;9.07;;;7.27;;
17259;SDS011;8746;49.230;9.220;2023-02-28T15:51:55;8.93;;;7.50;;
17259;SDS011;8746;49.230;9.220;2023-02-28T15:54:24;9.87;;;6.87;;
17259;SDS011;8746;49.230;9.220;2023-02-28T15:56:55;9.17;;;7.23;;
17259;SDS011;8746;49.230;9.220;2023-02-28T15:59:26;9.93;;;6.87;;
17259;SDS011;8746;49.230;9.220;2023-02-28T16:04:34;10.10;;;7.30;;
17259;SDS011;8746;49.230;9.220;2023-02-28T16:07:00;10.63;;;7.20;;
17259;SDS011;8746;49.230;9.220;2023-02-28T16:09:27;10.13;;;7.53;;
17259;SDS011;8746;49.230;9.220;2023-02-28T16:11:55;8.67;;;6.80;;
17259;SDS011;8746;49.230;9.220;2023-02-28T16:14:23;9.97;;;7.97;;
17259;SDS011;8746;49.230;9.220;2023-02-28T16:16:53;8.50;;;6.57;;
17259;SDS011;8746;49.230;9.220;2023-02-28T16:19:20;10.57;;;8.60;;
17259;SDS011;8746;49.230;9.220;2023-02-28T16:21:47;9.23;;;7.47;;
17259;SDS011;8746;49.230;9.220;2023-02-28T16:24:13;11.23;;;7.57;;
17259;SDS011;8746;49.230;9.220;2023-02-28T16:26:42;6.47;;;5.40;;
17259;SDS011;8746;49.230;9.220;2023-02-28T16:29:23;8.53;;;7.07;;
17259;SDS011;8746;49.230;9.220;2023-02-28T16:31:51;10.03;;;7.83;;
17259;SDS011;8746;49.230;9.220;2023-02-28T16:34:18;9.70;;;7.17;;
17259;SDS011;8746;49.230;9.220;2023-02-28T16:36:46;8.40;;;7.50;;
17259;SDS011;8746;49.230;9.220;2023-02-28T16:39:12;9.00;;;7.20;;
17259;SDS011;8746;49.230;9.220;2023-02-28T16:41:37;9.73;;;7.30;;
17259;SDS011;8746;49.230;9.220;2023-02-28T16:44:09;8.43;;;7.27;;
17259;SDS011;8746;49.230;9.220;2023-02-28T16:46:38;9.10;;;7.43;;
17259;SDS011;8746;49.230;9.220;2023-02-28T16:49:03;8.43;;;7.37;;
17259;SDS011;8746;49.230;9.220;2023-02-28T16:51:29;10.17;;;7.40;;
17259;SDS011;8746;49.230;9.220;2023-02-28T16:53:54;10.40;;;7.70;;
17259;SDS011;8746;49.230;9.220;2023-02-28T16:56:23;11.07;;;7.80;;
17259;SDS011;8746;49.230;9.220;2023-02-28T16:58:50;9.20;;;7.83;;
17259;SDS011;8746;49.230;9.220;2023-02-28T17:01:16;7.73;;;6.80;;
17259;SDS011;8746;49.230;9.220;2023-02-28T17:03:46;9.73;;;7.20;;
17259;SDS011;8746;49.230;9.220;2023-02-28T17:06:16;9.03;;;7.60;;
17259;SDS011;8746;49.230;9.220;2023-02-28T17:08:45;9.63;;;7.30;;
17259;SDS011;8746;49.230;9.220;2023-02-28T17:11:10;9.60;;;7.47;;
17259;SDS011;8746;49.230;9.220;2023-02-28T17:13:35;10.23;;;7.13;;
17259;SDS011;8746;49.230;9.220;2023-02-28T17:16:01;8.60;;;7.67;;
17259;SDS011;8746;49.230;9.220;2023-02-28T17:18:27;8.27;;;7.37;;
17259;SDS011;8746;49.230;9.220;2023-02-28T17:20:58;10.67;;;7.67;;
17259;SDS011;8746;49.230;9.220;2023-02-28T17:23:23;9.47;;;7.80;;
17259;SDS011;8746;49.230;9.220;2023-02-28T17:25:49;9.10;;;7.33;;
17259;SDS011;8746;49.230;9.220;2023-02-28T17:28:20;10.53;;;7.43;;
17259;SDS011;8746;49.230;9.220;2023-02-28T17:30:47;11.73;;;8.07;;
17259;SDS011;8746;49.230;9.220;2023-02-28T17:33:13;10.07;;;7.27;;
17259;SDS011;8746;49.230;9.220;2023-02-28T17:35:39;10.00;;;7.87;;
17259;SDS011;8746;49.230;9.220;2023-02-28T17:38:04;11.97;;;8.13;;
17259;SDS011;8746;49.230;9.220;2023-02-28T17:40:30;11.37;;;7.87;;
17259;SDS011;8746;49.230;9.220;2023-02-28T17:42:55;10.23;;;8.17;;
17259;SDS011;8746;49.230;9.220;2023-02-28T17:45:21;11.00;;;8.27;;
17259;SDS011;8746;49.230;9.220;2023-02-28T17:47:48;10.10;;;8.73;;
17259;SDS011;8746;49.230;9.220;2023-02-28T17:50:18;12.33;;;8.03;;
17259;SDS011;8746;49.230;9.220;2023-02-28T17:52:45;10.57;;;8.33;;
17259;SDS011;8746;49.230;9.220;2023-02-28T17:55:11;10.07;;;8.17;;
17259;SDS011;8746;49.230;9.220;2023-02-28T17:57:37;11.17;;;8.30;;
17259;SDS011;8746;49.230;9.220;2023-02-28T18:00:02;11.30;;;9.50;;
17259;SDS011;8746;49.230;9.220;2023-02-28T18:02:31;12.93;;;10.50;;
17259;SDS011;8746;49.230;9.220;2023-02-28T18:04:56;28.43;;;25.37;;
17259;SDS011;8746;49.230;9.220;2023-02-28T18:07:22;13.77;;;11.27;;